Time;durP1;ratioP1;P1;durP2;ratioP2;P2;SDS_P1;SDS_P2;PMS_P1;PMS_P2;Temp;Humidity;BMP_temperature;BMP_pressure;BME280_temperature;BME280_humidity;BME280_pressure;Samples;Min_cycle;Max_cycle;Signal;HPM_P1;HPM_P2
2022/04/30 00:00:47;;;;;;;12.03;10.40;;;;;;;13.04;96.94;100871.22;5020467;28;20705;-51
2022/04/30 00:03:13;;;;;;;12.00;11.00;;;;;;;13.06;97.41;100870.38;5010720;28;20200;-52
2022/04/30 00:05:38;;;;;;;14.63;11.60;;;;;;;13.14;97.49;100870.28;5008333;28;20190;-53
2022/04/30 00:08:04;;;;;;;14.27;11.23;;;;;;;13.18;97.43;100874.56;5010817;28;20194;-53
2022/04/30 00:10:31;;;;;;;12.70;11.40;;;;;;;13.21;97.58;100871.94;5014352;28;20226;-53
2022/04/30 00:12:57;;;;;;;13.23;11.53;;;;;;;13.23;97.21;100864.13;5014055;28;20184;-52
2022/04/30 00:15:23;;;;;;;12.60;11.30;;;;;;;13.23;97.72;100869.34;5020254;28;20222;-53
2022/04/30 00:17:50;;;;;;;12.50;11.30;;;;;;;13.21;97.41;100878.88;5017651;28;20201;-53
2022/04/30 00:20:15;;;;;;;12.13;10.90;;;;;;;13.19;97.38;100868.47;5014173;28;20231;-53
2022/04/30 00:22:40;;;;;;;12.77;11.57;;;;;;;13.18;97.23;100876.31;5012529;28;20615;-52
2022/04/30 00:25:07;;;;;;;11.57;10.57;;;;;;;13.17;97.28;100874.59;5020244;28;20187;-51
2022/04/30 00:27:34;;;;;;;12.20;11.07;;;;;;;13.16;97.45;100870.25;5016271;28;20825;-51
2022/04/30 00:30:00;;;;;;;12.30;11.10;;;;;;;13.14;97.63;100867.69;5019459;28;20731;-51
2022/04/30 00:32:25;;;;;;;11.97;10.90;;;;;;;13.15;97.40;100866.81;5020633;28;20198;-52
2022/04/30 00:34:50;;;;;;;12.03;10.37;;;;;;;13.14;97.57;100859.91;5013801;28;20230;-51
2022/04/30 00:37:16;;;;;;;11.07;10.07;;;;;;;13.14;97.80;100856.41;5020347;28;20184;-51
2022/04/30 00:39:41;;;;;;;10.87;9.80;;;;;;;13.07;97.98;100853.91;5013879;28;20745;-52
2022/04/30 00:42:11;;;;;;;12.27;10.97;;;;;;;13.03;98.88;100852.19;5018625;28;20277;-53
2022/04/30 00:44:36;;;;;;;11.23;10.13;;;;;;;12.99;99.26;100857.44;5016317;28;20262;-52
2022/04/30 00:47:02;;;;;;;10.07;9.17;;;;;;;12.95;99.51;100859.19;5016507;28;20656;-51
2022/04/30 00:49:27;;;;;;;13.27;11.97;;;;;;;12.96;98.00;100867.00;5013886;28;20201;-51
2022/04/30 00:51:57;;;;;;;12.70;11.17;;;;;;;12.96;98.06;100864.41;5021367;28;20856;-52
2022/04/30 00:54:24;;;;;;;12.67;11.33;;;;;;;12.94;97.75;100866.13;5016271;28;20239;-52
2022/04/30 00:56:58;;;;;;;11.47;10.27;;;;;;;12.92;98.26;100872.25;5008453;28;20638;-52
2022/04/30 00:59:26;;;;;;;12.17;10.73;;;;;;;12.88;98.44;100870.53;5012679;28;20194;-52
2022/04/30 01:01:51;;;;;;;12.77;11.47;;;;;;;12.85;98.84;100871.44;5016732;28;20190;-53
2022/04/30 01:04:18;;;;;;;12.93;11.70;;;;;;;12.85;98.86;100868.84;5016359;28;20616;-51
2022/04/30 01:07:02;;;;;;;10.70;9.70;;;;;;;12.81;99.66;100867.13;5013099;28;20729;-52
2022/04/30 01:09:29;;;;;;;11.97;10.87;;;;;;;12.80;99.56;100874.03;5014540;28;20200;-51
2022/04/30 01:11:57;;;;;;;10.57;9.57;;;;;;;12.79;99.87;100872.31;5014905;28;20192;-51
2022/04/30 01:14:26;;;;;;;10.50;9.57;;;;;;;12.80;100.00;100874.03;5017791;28;20232;-53
2022/04/30 01:16:52;;;;;;;9.83;8.63;;;;;;;12.82;100.00;100876.66;5015680;28;20223;-51
2022/04/30 01:19:20;;;;;;;11.00;9.80;;;;;;;12.82;100.00;100879.25;5022341;28;20668;-52
2022/04/30 01:21:50;;;;;;;14.23;12.67;;;;;;;12.88;100.00;100879.16;5017185;28;20227;-53
2022/04/30 01:24:21;;;;;;;14.90;12.67;;;;;;;12.86;100.00;100882.66;5013992;28;20222;-53
2022/04/30 01:26:49;;;;;;;13.50;11.90;;;;;;;12.78;100.00;100877.53;5020902;28;20183;-54
2022/04/30 01:29:17;;;;;;;14.67;13.00;;;;;;;12.74;100.00;100878.44;5017392;28;20219;-53
2022/04/30 01:37:25;;;;;;;15.90;13.97;;;;;;;12.67;100.00;100869.84;5017565;28;20198;-53
2022/04/30 01:40:11;;;;;;;17.60;15.73;;;;;;;12.63;100.00;100869.00;5014394;28;20203;-52
2022/04/30 01:42:45;;;;;;;16.67;14.70;;;;;;;12.58;100.00;100875.13;5015583;28;20657;-53
2022/04/30 01:45:11;;;;;;;18.07;14.97;;;;;;;12.52;100.00;100868.25;5014773;28;20725;-52
2022/04/30 01:47:39;;;;;;;18.27;16.00;;;;;;;12.52;100.00;100881.22;5014388;28;20234;-52
2022/04/30 01:50:07;;;;;;;16.93;14.83;;;;;;;12.47;100.00;100870.88;5014025;28;20385;-53
2022/04/30 01:52:33;;;;;;;17.67;14.93;;;;;;;12.45;100.00;100869.16;5016355;28;20192;-52
2022/04/30 01:54:59;;;;;;;15.63;14.07;;;;;;;12.43;100.00;100868.28;5018807;28;20230;-53
2022/04/30 01:57:28;;;;;;;16.87;14.77;;;;;;;12.41;100.00;100865.72;5017486;28;20226;-53
2022/04/30 01:59:54;;;;;;;17.90;16.07;;;;;;;12.41;100.00;100867.44;5013666;28;20216;-54
2022/04/30 02:02:23;;;;;;;21.77;17.43;;;;;;;12.37;100.00;100856.22;5016023;28;20188;-53
2022/04/30 02:04:52;;;;;;;18.70;16.50;;;;;;;12.33;100.00;100851.91;5016613;28;20287;-53
2022/04/30 02:07:20;;;;;;;19.17;15.63;;;;;;;12.33;100.00;100854.50;5012376;28;20184;-53
2022/04/30 02:09:45;;;;;;;18.13;16.33;;;;;;;12.31;100.00;100851.94;5018571;28;20591;-53
2022/04/30 02:12:11;;;;;;;19.27;17.27;;;;;;;12.30;100.00;100858.00;5022326;28;20184;-52
2022/04/30 02:14:41;;;;;;;20.00;17.73;;;;;;;12.27;100.00;100852.81;5019869;28;20545;-53
2022/04/30 02:17:09;;;;;;;21.00;17.00;;;;;;;12.24;100.00;100852.00;5014015;28;20977;-53
2022/04/30 02:22:21;;;;;;;17.63;15.67;;;;;;;12.18;100.00;100851.16;5020330;28;20233;-52
2022/04/30 02:24:47;;;;;;;23.43;19.43;;;;;;;12.16;100.00;100850.31;5015992;28;20623;-53
2022/04/30 02:27:12;;;;;;;21.83;18.73;;;;;;;12.12;100.00;100855.53;5017439;28;20189;-53
2022/04/30 02:29:38;;;;;;;22.60;18.47;;;;;;;12.08;100.00;100852.09;5018736;28;20239;-54
2022/04/30 02:32:04;;;;;;;22.33;18.83;;;;;;;12.08;100.00;100864.22;5023394;28;20741;-53
2022/04/30 02:34:29;;;;;;;19.73;17.67;;;;;;;12.04;100.00;100861.63;5024139;28;20233;-52
2022/04/30 02:36:55;;;;;;;18.17;16.17;;;;;;;12.04;100.00;100871.13;5025775;28;20299;-54
2022/04/30 02:39:20;;;;;;;18.73;16.73;;;;;;;12.08;100.00;100870.25;5022371;28;20785;-53
2022/04/30 02:41:45;;;;;;;19.43;17.43;;;;;;;12.09;100.00;100865.94;5020122;28;20267;-51
2022/04/30 02:44:11;;;;;;;19.23;17.23;;;;;;;12.07;100.00;100860.75;5017973;28;20199;-53
2022/04/30 02:46:36;;;;;;;24.53;21.43;;;;;;;12.09;100.00;100852.97;5018795;28;20834;-53
2022/04/30 02:49:02;;;;;;;26.37;22.07;;;;;;;12.08;100.00;100859.88;5016058;28;20275;-53
2022/04/30 02:51:27;;;;;;;26.43;22.70;;;;;;;12.02;100.00;100854.75;5018889;28;20216;-53
2022/04/30 02:53:54;;;;;;;25.00;22.33;;;;;;;11.98;100.00;100859.06;5021396;28;20642;-53
2022/04/30 02:56:20;;;;;;;24.30;21.67;;;;;;;11.91;100.00;100854.75;5016413;28;20289;-52
2022/04/30 03:01:28;;;;;;;22.10;19.97;;;;;;;11.85;100.00;100865.16;5017049;28;20270;-52
2022/04/30 03:03:54;;;;;;;22.43;20.00;;;;;;;11.84;100.00;100864.31;5018924;28;20191;-54
2022/04/30 03:06:19;;;;;;;24.00;20.73;;;;;;;11.84;100.00;100853.06;5025856;28;20192;-53
2022/04/30 03:08:47;;;;;;;25.03;21.30;;;;;;;11.80;100.00;100857.41;5022427;28;20187;-52
2022/04/30 03:11:13;;;;;;;22.43;20.03;;;;;;;11.78;100.00;100856.53;5018036;28;20208;-51
2022/04/30 03:13:38;;;;;;;24.67;22.07;;;;;;;11.75;100.00;100853.97;5020089;28;20633;-51
2022/04/30 03:21:44;;;;;;;;;;;;;;;;;;;;;
2022/04/30 03:24:16;;;;;;;24.90;22.23;;;;;;;11.64;100.00;100861.81;5020541;28;20183;-53
2022/04/30 03:26:46;;;;;;;24.87;22.20;;;;;;;11.63;100.00;100856.63;5015999;28;20218;-53
2022/04/30 03:29:12;;;;;;;23.83;21.27;;;;;;;11.61;100.00;100851.44;5014912;28;20192;-53
2022/04/30 03:31:41;;;;;;;23.93;21.63;;;;;;;11.58;100.00;100856.63;5019067;28;20661;-53
2022/04/30 03:34:10;;;;;;;24.53;21.93;;;;;;;11.57;100.00;100845.38;5018272;28;20216;-53
2022/04/30 03:36:36;;;;;;;25.97;22.93;;;;;;;11.58;100.00;100847.13;5018255;28;20330;-53
2022/04/30 03:39:03;;;;;;;26.37;23.03;;;;;;;11.57;100.00;100842.78;5011446;28;20243;-53
2022/04/30 03:41:29;;;;;;;26.40;23.60;;;;;;;11.54;100.00;100841.94;5017021;28;20218;-53
2022/04/30 03:43:54;;;;;;;26.63;23.80;;;;;;;11.49;100.00;100839.38;5016102;28;20576;-54
2022/04/30 03:46:20;;;;;;;27.93;25.03;;;;;;;11.47;100.00;100835.09;5021854;28;20236;-52
2022/04/30 03:48:45;;;;;;;28.63;25.53;;;;;;;11.40;100.00;100832.50;5015224;28;21069;-53
2022/04/30 03:51:10;;;;;;;36.30;29.53;;;;;;;11.38;100.00;100829.06;5012418;28;20702;-53
2022/04/30 03:53:36;;;;;;;35.17;30.57;;;;;;;11.28;100.00;100841.16;5020307;28;20287;-52
2022/04/30 03:56:02;;;;;;;32.43;28.87;;;;;;;11.17;100.00;100835.16;5016707;28;20219;-52
2022/04/30 03:58:27;;;;;;;35.50;30.77;;;;;;;11.11;100.00;100840.38;5020663;28;20204;-49
2022/04/30 04:00:54;;;;;;;35.00;29.80;;;;;;;11.06;100.00;100836.94;5012088;28;20236;-53
2022/04/30 04:03:21;;;;;;;33.87;29.77;;;;;;;11.02;100.00;100840.38;5015290;28;20841;-53
2022/04/30 04:05:50;;;;;;;34.37;29.60;;;;;;;11.00;100.00;100839.53;5021470;28;20681;-53
2022/04/30 04:08:17;;;;;;;32.53;27.97;;;;;;;10.98;100.00;100839.53;5024911;28;20738;-52
2022/04/30 04:10:42;;;;;;;36.87;32.53;;;;;;;10.97;100.00;100840.41;5025315;28;20207;-53
2022/04/30 04:18:37;;;;;;;43.70;35.37;;;;;;;10.92;100.00;100843.00;5016058;28;20269;-52
2022/04/30 04:21:02;;;;;;;38.37;31.67;;;;;;;10.90;100.00;100841.25;5018243;28;20286;-52
2022/04/30 04:23:28;;;;;;;42.70;34.87;;;;;;;10.91;100.00;100838.69;5018189;28;20346;-52
2022/04/30 04:25:59;;;;;;;38.17;32.20;;;;;;;10.89;100.00;100840.41;5013597;28;20183;-54
2022/04/30 04:28:24;;;;;;;40.93;33.07;;;;;;;10.91;100.00;100840.41;5017448;28;20192;-53
2022/04/30 04:30:50;;;;;;;38.63;33.20;;;;;;;10.92;100.00;100835.22;5017554;28;20218;-52
2022/04/30 04:33:15;;;;;;;41.77;34.17;;;;;;;10.91;100.00;100841.28;5018266;28;20226;-54
2022/04/30 04:35:40;;;;;;;43.97;34.73;;;;;;;10.90;100.00;100847.31;5019706;28;20298;-52
2022/04/30 04:38:06;;;;;;;37.17;32.27;;;;;;;10.89;100.00;100845.59;5016948;28;20226;-52
2022/04/30 04:40:32;;;;;;;36.27;31.13;;;;;;;10.90;100.00;100849.03;5011870;28;20227;-52
2022/04/30 04:42:57;;;;;;;41.47;34.20;;;;;;;10.92;100.00;100842.13;5021634;28;20214;-53
2022/04/30 04:45:26;;;;;;;36.23;30.80;;;;;;;10.92;100.00;100850.75;5015367;28;20222;-53
2022/04/30 04:47:52;;;;;;;35.63;31.83;;;;;;;10.92;100.00;100853.34;5011900;28;20191;-53
2022/04/30 04:50:18;;;;;;;37.73;32.33;;;;;;;10.88;100.00;100853.38;5015084;28;20700;-53
2022/04/30 04:52:44;;;;;;;40.63;36.23;;;;;;;10.85;100.00;100855.97;5015081;28;20188;-53
2022/04/30 04:55:10;;;;;;;38.47;32.87;;;;;;;10.81;100.00;100857.69;5014233;28;20184;-53
2022/04/30 04:57:36;;;;;;;35.40;31.37;;;;;;;10.79;100.00;100860.25;5020246;28;20188;-53
2022/04/30 05:00:03;;;;;;;40.33;33.80;;;;;;;10.79;100.00;100862.84;5012785;28;20220;-52
2022/04/30 05:02:29;;;;;;;41.40;35.97;;;;;;;10.75;100.00;100858.53;5016486;28;20191;-52
2022/04/30 05:04:54;;;;;;;44.70;38.07;;;;;;;10.72;100.00;100855.97;5015730;28;20663;-52
2022/04/30 05:07:20;;;;;;;43.67;36.83;;;;;;;10.70;100.00;100862.00;5015743;28;20194;-53
2022/04/30 05:09:46;;;;;;;42.93;36.87;;;;;;;10.62;100.00;100864.56;5015057;28;20231;-52
2022/04/30 05:12:12;;;;;;;48.73;39.70;;;;;;;10.60;100.00;100872.34;5019142;28;20277;-53
2022/04/30 05:14:37;;;;;;;51.67;42.77;;;;;;;10.59;100.00;100874.97;5020808;28;20282;-52
2022/04/30 05:17:04;;;;;;;55.90;45.57;;;;;;;10.56;100.00;100872.34;5014778;28;20294;-52
2022/04/30 05:19:30;;;;;;;57.17;45.10;;;;;;;10.56;100.00;100886.16;5017300;28;20199;-52
2022/04/30 05:21:55;;;;;;;61.17;47.50;;;;;;;10.55;100.00;100884.41;5015859;28;20222;-52
2022/04/30 05:24:21;;;;;;;70.43;51.90;;;;;;;10.56;100.00;100885.31;5015129;28;20191;-52
2022/04/30 05:26:49;;;;;;;66.67;50.77;;;;;;;10.58;100.00;100881.84;5018469;28;20191;-52
2022/04/30 05:29:16;;;;;;;78.57;52.67;;;;;;;10.64;100.00;100881.84;5015551;28;20192;-52
2022/04/30 05:31:42;;;;;;;75.63;51.93;;;;;;;10.70;100.00;100875.81;5017179;28;20192;-53
2022/04/30 05:34:07;;;;;;;83.20;57.20;;;;;;;10.71;100.00;100880.13;5016370;28;20206;-53
2022/04/30 05:36:33;;;;;;;76.17;54.83;;;;;;;10.73;100.00;100880.13;5013445;28;20788;-53
2022/04/30 05:38:59;;;;;;;79.83;56.93;;;;;;;10.75;100.00;100888.75;5015832;28;20559;-53
2022/04/30 05:41:25;;;;;;;84.43;56.47;;;;;;;10.79;100.00;100880.97;5010228;28;20855;-53
2022/04/30 05:43:51;;;;;;;91.73;58.43;;;;;;;10.85;100.00;100881.84;5016735;28;20245;-52
2022/04/30 05:46:16;;;;;;;93.77;59.77;;;;;;;10.86;100.00;100887.00;5015833;28;20183;-52
2022/04/30 05:48:42;;;;;;;86.97;58.03;;;;;;;10.90;100.00;100883.56;5015498;28;20196;-53
2022/04/30 05:51:07;;;;;;;91.77;60.60;;;;;;;10.95;100.00;100892.22;5021798;28;20218;-53
2022/04/30 05:53:32;;;;;;;87.57;60.30;;;;;;;10.96;100.00;100893.06;5017723;28;20510;-53
2022/04/30 05:55:58;;;;;;;83.53;58.27;;;;;;;10.92;100.00;100893.91;5019781;28;20298;-53
2022/04/30 05:58:24;;;;;;;84.33;56.90;;;;;;;10.98;100.00;100894.75;5019311;28;20204;-53
2022/04/30 06:00:49;;;;;;;78.30;54.67;;;;;;;11.02;100.00;100898.25;5022028;28;20341;-54
2022/04/30 06:03:15;;;;;;;80.23;56.27;;;;;;;10.99;100.00;100895.66;5019473;28;20227;-53
2022/04/30 06:05:41;;;;;;;74.23;53.10;;;;;;;11.04;100.00;100898.22;5016161;28;20195;-53
2022/04/30 06:08:07;;;;;;;71.13;50.30;;;;;;;11.08;100.00;100897.38;5025050;28;20261;-53
2022/04/30 06:10:32;;;;;;;72.97;49.80;;;;;;;11.10;100.00;100901.66;5023032;28;20775;-54
2022/04/30 06:12:58;;;;;;;66.37;48.63;;;;;;;11.16;100.00;100902.53;5018519;28;20241;-53
2022/04/30 06:15:25;;;;;;;70.37;48.57;;;;;;;11.19;100.00;100903.38;5020447;28;20211;-53
2022/04/30 06:17:50;;;;;;;61.60;46.37;;;;;;;11.21;100.00;100906.84;5016323;28;20200;-52
2022/04/30 06:20:15;;;;;;;63.97;48.97;;;;;;;11.19;100.00;100905.97;5013123;28;20222;-52
2022/04/30 06:22:41;;;;;;;55.40;43.80;;;;;;;11.17;100.00;100910.28;5013931;28;20192;-52
2022/04/30 06:25:07;;;;;;;56.03;43.77;;;;;;;11.18;100.00;100913.78;5017057;28;20249;-52
2022/04/30 06:27:33;;;;;;;53.97;42.33;;;;;;;11.17;100.00;100912.03;5019700;28;20203;-52
2022/04/30 06:29:59;;;;;;;50.70;40.37;;;;;;;11.17;100.00;100914.63;5015109;28;20214;-52
2022/04/30 06:32:25;;;;;;;51.20;40.43;;;;;;;11.21;100.00;100909.44;5014662;28;20275;-53
2022/04/30 06:34:51;;;;;;;45.10;39.80;;;;;;;11.28;100.00;100907.69;5024010;28;20196;-51
2022/04/30 06:37:17;;;;;;;43.20;38.30;;;;;;;11.31;100.00;100912.88;5027051;28;20212;-52
2022/04/30 06:39:43;;;;;;;41.63;36.33;;;;;;;11.34;100.00;100912.00;5015059;28;20212;-52
2022/04/30 06:42:08;;;;;;;42.57;36.43;;;;;;;11.38;100.00;100916.31;5019674;28;20283;-53
2022/04/30 06:44:34;;;;;;;40.37;35.07;;;;;;;11.45;100.00;100915.41;5016440;28;20183;-53
2022/04/30 06:46:59;;;;;;;43.93;38.33;;;;;;;11.55;100.00;100914.56;5017047;28;20187;-52
2022/04/30 06:49:24;;;;;;;41.03;35.03;;;;;;;11.59;100.00;100916.25;5013968;28;20311;-53
2022/04/30 06:51:50;;;;;;;38.67;34.60;;;;;;;11.56;100.00;100916.28;5019571;28;20196;-53
2022/04/30 06:57:10;;;;;;;32.57;29.23;;;;;;;11.47;100.00;100925.81;5016030;28;20222;-52
2022/04/30 06:59:42;;;;;;;33.40;30.33;;;;;;;11.61;100.00;100926.63;5009952;28;20551;-53
2022/04/30 07:02:18;;;;;;;32.00;28.80;;;;;;;11.55;100.00;100929.22;5014489;28;20267;-52
2022/04/30 07:04:46;;;;;;;30.17;27.17;;;;;;;11.47;100.00;100931.84;5022606;28;20252;-52
2022/04/30 07:07:12;;;;;;;31.00;27.80;;;;;;;11.41;100.00;100931.88;5024349;28;20190;-53
2022/04/30 07:09:38;;;;;;;29.30;26.40;;;;;;;11.44;100.00;100930.13;5026597;28;20286;-52
2022/04/30 07:12:06;;;;;;;30.13;27.03;;;;;;;11.49;100.00;100935.28;5015693;28;20257;-51
2022/04/30 07:14:35;;;;;;;28.70;25.93;;;;;;;11.54;100.00;100933.56;5026193;28;20191;-51
2022/04/30 07:17:05;;;;;;;30.37;27.20;;;;;;;11.56;100.00;100938.72;5021052;28;20399;-51
2022/04/30 07:19:30;;;;;;;31.10;27.90;;;;;;;11.56;100.00;100939.59;5016695;28;20220;-53
2022/04/30 07:21:56;;;;;;;29.73;26.67;;;;;;;11.58;100.00;100944.78;5014724;28;20271;-51
2022/04/30 07:24:21;;;;;;;32.03;28.87;;;;;;;11.54;100.00;100937.88;5018946;28;20235;-51
2022/04/30 07:26:47;;;;;;;32.30;29.07;;;;;;;11.49;100.00;100943.06;5015547;28;20180;-51
2022/04/30 07:29:12;;;;;;;32.20;29.00;;;;;;;11.43;100.00;100943.94;5013655;28;20270;-51
2022/04/30 07:31:37;;;;;;;32.10;28.93;;;;;;;11.39;100.00;100949.16;5014311;28;20319;-51
2022/04/30 07:34:04;;;;;;;29.97;27.07;;;;;;;11.32;100.00;100950.88;5017656;28;20857;-52
2022/04/30 07:36:30;;;;;;;30.17;27.00;;;;;;;11.29;100.00;100953.47;5016910;28;20733;-51
2022/04/30 07:38:55;;;;;;;29.63;26.83;;;;;;;11.25;100.00;100949.16;5019951;28;20271;-52
2022/04/30 07:41:20;;;;;;;29.53;26.63;;;;;;;11.21;100.00;100950.88;5021790;28;20306;-54
2022/04/30 07:43:46;;;;;;;30.53;27.63;;;;;;;11.19;100.00;100947.44;5023314;28;20195;-53
2022/04/30 07:46:11;;;;;;;30.20;27.20;;;;;;;11.19;100.00;100959.53;5018417;28;20678;-53
2022/04/30 07:48:36;;;;;;;29.73;26.77;;;;;;;11.21;100.00;100956.06;5014270;28;20952;-53
2022/04/30 07:51:02;;;;;;;31.13;28.13;;;;;;;11.22;100.00;100962.97;5015046;28;20212;-52
2022/04/30 07:53:30;;;;;;;31.23;28.23;;;;;;;11.24;100.00;100958.66;5010719;28;20262;-52
2022/04/30 07:55:56;;;;;;;29.53;26.73;;;;;;;11.29;100.00;100958.66;5021378;28;20204;-52
2022/04/30 07:58:21;;;;;;;27.20;24.70;;;;;;;11.35;100.00;100957.78;5019467;28;20611;-53
2022/04/30 08:00:46;;;;;;;29.13;26.53;;;;;;;11.32;100.00;100966.44;5013600;28;20219;-53
2022/04/30 08:03:12;;;;;;;30.83;27.93;;;;;;;11.31;100.00;100963.81;5019107;28;20262;-53
2022/04/30 08:05:37;;;;;;;29.63;26.73;;;;;;;11.35;100.00;100966.41;5020448;28;20569;-53
2022/04/30 08:08:03;;;;;;;27.27;24.73;;;;;;;11.31;100.00;100966.41;5021095;28;20183;-54
2022/04/30 08:10:29;;;;;;;27.77;25.17;;;;;;;11.30;100.00;100960.38;5021522;28;20208;-53
2022/04/30 08:12:56;;;;;;;29.10;26.30;;;;;;;11.37;100.00;100961.22;5018423;28;20276;-54
2022/04/30 08:15:23;;;;;;;28.20;25.53;;;;;;;11.38;100.00;100973.31;5018243;28;20183;-53
2022/04/30 08:17:48;;;;;;;27.33;24.50;;;;;;;11.38;100.00;100960.38;5016736;28;20193;-54
2022/04/30 08:20:13;;;;;;;26.47;23.97;;;;;;;11.36;100.00;100975.91;5017800;28;20297;-53
2022/04/30 08:22:39;;;;;;;27.40;24.83;;;;;;;11.39;100.00;100973.31;5016275;28;20179;-54
2022/04/30 08:25:05;;;;;;;27.90;25.30;;;;;;;11.39;100.00;100977.66;5017466;28;20184;-53
2022/04/30 08:27:30;;;;;;;25.23;22.87;;;;;;;11.36;100.00;100968.13;5015039;28;20195;-53
2022/04/30 08:29:55;;;;;;;26.07;23.73;;;;;;;11.34;100.00;100979.38;5019741;28;20696;-54
2022/04/30 08:32:27;;;;;;;24.30;22.20;;;;;;;11.25;100.00;100968.16;5018882;28;20188;-53
2022/04/30 08:34:53;;;;;;;24.90;22.70;;;;;;;11.29;100.00;100969.88;5017685;28;20233;-53
2022/04/30 08:37:19;;;;;;;24.13;22.03;;;;;;;11.21;100.00;100976.78;5014716;28;20212;-53
2022/04/30 08:39:45;;;;;;;24.37;22.17;;;;;;;11.21;100.00;100978.50;5020316;28;20211;-53
2022/04/30 08:42:13;;;;;;;24.60;22.33;;;;;;;11.24;100.00;100975.91;5026405;28;20610;-53
2022/04/30 08:44:39;;;;;;;24.73;22.43;;;;;;;11.29;100.00;100985.41;5021592;28;20253;-53
2022/04/30 08:47:05;;;;;;;23.50;21.37;;;;;;;11.34;100.00;100972.47;5014595;28;20650;-54
2022/04/30 08:49:31;;;;;;;24.07;21.73;;;;;;;11.37;100.00;100980.22;5017025;28;20187;-54
2022/04/30 08:51:57;;;;;;;24.13;21.97;;;;;;;11.39;100.00;100977.66;5020141;28;20195;-53
2022/04/30 08:54:22;;;;;;;23.53;21.43;;;;;;;11.40;100.00;100977.63;5017607;28;20242;-52
2022/04/30 08:56:55;;;;;;;24.30;22.07;;;;;;;11.43;100.00;100977.63;5016276;28;20212;-53
2022/04/30 08:59:21;;;;;;;25.33;23.03;;;;;;;11.48;100.00;100980.22;5008792;28;20194;-53
2022/04/30 09:01:51;;;;;;;24.83;22.63;;;;;;;11.57;100.00;100980.19;5017662;28;20196;-53
2022/04/30 09:04:17;;;;;;;24.47;22.37;;;;;;;11.55;100.00;100974.16;5019439;28;20215;-53
2022/04/30 09:06:55;;;;;;;23.83;21.73;;;;;;;11.59;100.00;100975.88;5014283;28;21077;-53
2022/04/30 09:09:28;;;;;;;24.50;22.30;;;;;;;11.62;100.00;100987.09;5019455;28;20209;-53
2022/04/30 09:11:57;;;;;;;23.13;21.13;;;;;;;11.64;100.00;100969.81;5018017;28;20190;-53
2022/04/30 09:14:28;;;;;;;25.43;23.07;;;;;;;11.69;100.00;100974.13;5018176;28;20196;-53
2022/04/30 09:17:07;;;;;;;23.03;20.93;;;;;;;11.66;100.00;100974.13;5014992;28;20222;-53
2022/04/30 09:19:44;;;;;;;24.40;22.20;;;;;;;11.76;100.00;100982.75;5016258;28;20195;-53
2022/04/30 09:22:10;;;;;;;24.00;21.90;;;;;;;11.76;100.00;100974.13;5011436;28;20190;-53
2022/04/30 09:24:49;;;;;;;22.93;20.83;;;;;;;11.87;100.00;100982.72;5014497;28;20206;-53
2022/04/30 09:27:18;;;;;;;21.43;19.57;;;;;;;11.98;100.00;100969.72;5016312;28;20192;-53
2022/04/30 09:29:45;;;;;;;23.07;21.03;;;;;;;12.00;100.00;100974.06;5015786;28;20262;-52
2022/04/30 09:32:21;;;;;;;23.83;21.73;;;;;;;12.00;100.00;100978.41;5016647;28;20272;-53
2022/04/30 09:37:42;;;;;;;22.17;20.07;;;;;;;12.15;100.00;100982.66;5007716;28;20251;-53
2022/04/30 09:40:13;;;;;;;22.57;20.47;;;;;;;12.25;100.00;100979.13;5012056;28;20257;-53
2022/04/30 09:42:43;;;;;;;24.33;22.00;;;;;;;12.20;100.00;100979.16;5012631;28;20188;-53
2022/04/30 09:45:20;;;;;;;22.37;20.27;;;;;;;12.27;100.00;100979.13;5015334;28;20187;-53
2022/04/30 09:47:46;;;;;;;23.37;21.37;;;;;;;12.16;100.00;100979.19;5015916;28;20195;-53
2022/04/30 09:55:41;;;;;;;22.70;20.70;;;;;;;11.93;100.00;100974.06;5019355;28;20748;-53
2022/04/30 09:58:08;;;;;;;22.90;20.87;;;;;;;11.92;100.00;100975.78;5017276;28;20204;-53
2022/04/30 10:00:34;;;;;;;23.83;21.63;;;;;;;11.87;100.00;100974.94;5017968;28;20219;-53
2022/04/30 10:03:02;;;;;;;24.27;22.10;;;;;;;11.86;100.00;100968.91;5012767;28;20224;-53
2022/04/30 10:05:32;;;;;;;25.43;23.13;;;;;;;11.83;100.00;100976.69;5014597;28;20196;-53
2022/04/30 10:07:59;;;;;;;26.43;24.03;;;;;;;11.73;100.00;100972.38;5008666;28;20620;-53
2022/04/30 10:10:50;;;;;;;27.93;25.33;;;;;;;11.67;100.00;100980.19;5009170;28;20211;-53
2022/04/30 10:13:25;;;;;;;26.60;24.00;;;;;;;11.65;100.00;100972.41;5015574;28;20549;-52
2022/04/30 10:15:57;;;;;;;27.17;24.70;;;;;;;11.52;100.00;100981.94;5025186;28;20242;-52
2022/04/30 10:18:33;;;;;;;28.10;25.40;;;;;;;11.42;100.00;100970.72;5016601;28;20194;-52
2022/04/30 10:21:00;;;;;;;28.33;25.67;;;;;;;11.33;100.00;100970.75;5010517;28;20220;-52
2022/04/30 10:23:26;;;;;;;27.13;24.50;;;;;;;11.36;100.00;100978.50;5016150;28;20223;-52
2022/04/30 10:25:54;;;;;;;27.50;25.00;;;;;;;11.36;100.00;100975.91;5012505;28;20211;-52
2022/04/30 10:28:21;;;;;;;27.33;24.93;;;;;;;11.41;100.00;100975.94;5015015;28;20242;-53
2022/04/30 10:30:59;;;;;;;27.73;25.30;;;;;;;11.49;100.00;100981.09;5010238;28;20220;-52
2022/04/30 10:33:25;;;;;;;27.63;25.10;;;;;;;11.41;100.00;100976.78;5017017;28;20818;-52
2022/04/30 10:35:50;;;;;;;28.03;25.53;;;;;;;11.50;100.00;100973.31;5024034;28;20885;-52
2022/04/30 10:38:20;;;;;;;27.73;25.23;;;;;;;11.48;100.00;100971.59;5015106;28;20199;-52
2022/04/30 10:40:51;;;;;;;27.47;24.97;;;;;;;11.48;100.00;100980.22;5014870;28;20617;-52
2022/04/30 10:43:37;;;;;;;26.47;24.07;;;;;;;11.50;100.00;100975.03;5017882;28;20191;-52
2022/04/30 10:46:18;;;;;;;26.60;24.20;;;;;;;11.63;100.00;100971.56;5027847;28;20176;-52
2022/04/30 10:48:44;;;;;;;26.30;23.93;;;;;;;11.67;100.00;100968.06;5036777;28;20548;-52
2022/04/30 10:51:10;;;;;;;26.13;23.63;;;;;;;11.67;100.00;100972.41;5019005;28;20219;-53
2022/04/30 10:53:39;;;;;;;27.43;24.90;;;;;;;11.62;100.00;100974.13;5020596;28;20275;-53
2022/04/30 10:56:06;;;;;;;26.93;24.47;;;;;;;11.68;100.00;100974.13;5016681;28;20224;-53
2022/04/30 10:58:32;;;;;;;26.00;23.47;;;;;;;11.62;100.00;100967.25;5011801;28;20223;-52
2022/04/30 11:01:09;;;;;;;26.20;23.60;;;;;;;11.60;100.00;100968.97;5012571;28;20223;-52
2022/04/30 11:03:34;;;;;;;26.27;23.83;;;;;;;11.65;100.00;100964.63;5015972;28;20191;-52
2022/04/30 11:05:59;;;;;;;24.90;22.70;;;;;;;11.76;100.00;100967.19;5019067;28;20187;-53
2022/04/30 11:08:26;;;;;;;26.30;23.87;;;;;;;11.81;100.00;100957.66;5020547;28;20273;-53
2022/04/30 11:10:54;;;;;;;25.93;23.63;;;;;;;11.96;100.00;100959.34;5018399;28;20765;-52
2022/04/30 11:13:20;;;;;;;25.43;22.87;;;;;;;12.03;100.00;100953.28;5023316;28;20188;-53
2022/04/30 11:15:46;;;;;;;24.47;22.17;;;;;;;12.26;100.00;100949.72;5017579;28;20208;-53
2022/04/30 11:18:12;;;;;;;22.23;20.20;;;;;;;12.45;100.00;100949.63;5019291;28;20195;-53
2022/04/30 11:20:37;;;;;;;23.10;20.83;;;;;;;12.43;100.00;100949.63;5010787;28;20690;-52
2022/04/30 11:23:03;;;;;;;23.20;20.97;;;;;;;12.49;100.00;100943.53;5014040;28;20215;-53
2022/04/30 11:25:36;;;;;;;21.30;19.30;;;;;;;12.49;100.00;100953.94;5017442;28;22208;-52
2022/04/30 11:28:04;;;;;;;20.53;18.80;;;;;;;12.54;100.00;100946.97;5016545;28;20190;-53
2022/04/30 11:30:34;;;;;;;20.23;18.33;;;;;;;12.61;100.00;100948.66;5021441;28;20232;-52
2022/04/30 11:32:59;;;;;;;20.03;18.23;;;;;;;12.68;100.00;100949.47;5014729;28;20197;-53
2022/04/30 11:35:24;;;;;;;20.37;18.47;;;;;;;12.67;100.00;100949.50;5017331;28;20558;-53
2022/04/30 11:37:50;;;;;;;20.50;18.53;;;;;;;12.81;100.00;100943.31;5017054;28;20207;-52